Time;durP1;ratioP1;P1;durP2;ratioP2;P2;SDS_P1;SDS_P2;PMS_P1;PMS_P2;Temp;Humidity;BMP_temperature;BMP_pressure;BME280_temperature;BME280_humidity;BME280_pressure;Samples;Min_cycle;Max_cycle;Signal;HPM_P1;HPM_P2
2021/06/23 00:00:54;;;;;;;31.67;23.40;;;12.80;1.00;;;;;;4970243;28;20221;-64
2021/06/23 00:03:20;;;;;;;32.50;22.87;;;12.80;30.00;;;;;;4971363;28;20219;-63
2021/06/23 00:05:47;;;;;;;28.57;22.87;;;12.80;1.00;;;;;;4970439;28;20237;-64
2021/06/23 00:08:14;;;;;;;29.50;23.80;;;12.80;1.00;;;;;;4970646;28;20260;-63
2021/06/23 00:10:41;;;;;;;33.43;22.90;;;12.80;1.00;;;;;;4970580;28;20315;-62
2021/06/23 00:13:09;;;;;;;28.63;21.47;;;12.80;1.00;;;;;;4970666;28;20221;-64
2021/06/23 00:15:37;;;;;;;30.03;22.80;;;12.80;99.90;;;;;;4970538;28;20211;-64
2021/06/23 00:18:05;;;;;;;30.80;21.87;;;12.80;99.90;;;;;;4970459;28;20232;-63
2021/06/23 00:20:32;;;;;;;30.77;22.43;;;12.70;99.90;;;;;;4970281;28;20573;-63
2021/06/23 00:22:59;;;;;;;31.07;23.73;;;12.70;99.90;;;;;;4970449;28;20204;-62
2021/06/23 00:25:26;;;;;;;30.87;22.03;;;12.70;99.90;;;;;;4970539;28;20209;-62
2021/06/23 00:27:53;;;;;;;31.07;22.30;;;12.70;99.90;;;;;;4970257;28;20241;-63
2021/06/23 00:30:20;;;;;;;32.23;20.33;;;12.70;99.90;;;;;;4970030;28;20215;-64
2021/06/23 00:32:51;;;;;;;28.67;22.67;;;12.70;99.90;;;;;;4970071;28;20225;-63
2021/06/23 00:35:17;;;;;;;28.77;21.60;;;12.70;55.40;;;;;;4970350;28;20556;-62
2021/06/23 00:37:44;;;;;;;28.23;21.50;;;12.70;99.90;;;;;;4970379;28;20239;-63
2021/06/23 00:40:13;;;;;;;31.80;23.07;;;12.70;1.00;;;;;;4969946;28;20569;-62
2021/06/23 00:42:42;;;;;;;34.90;24.10;;;12.70;1.00;;;;;;4970340;28;20255;-63
2021/06/23 00:45:11;;;;;;;31.47;22.10;;;12.80;98.50;;;;;;4970046;28;20264;-63
2021/06/23 00:47:38;;;;;;;27.10;21.43;;;12.80;1.00;;;;;;4970134;28;20648;-64
2021/06/23 00:50:08;;;;;;;35.77;23.20;;;12.80;1.00;;;;;;4969659;28;20697;-64
2021/06/23 00:52:36;;;;;;;35.23;23.07;;;12.70;1.00;;;;;;4969811;28;20231;-63
2021/06/23 00:55:03;;;;;;;31.57;22.47;;;12.70;1.00;;;;;;4970085;28;20208;-62
2021/06/23 00:57:32;;;;;;;28.77;22.40;;;12.70;99.90;;;;;;4970019;28;20249;-63
2021/06/23 01:00:00;;;;;;;34.03;22.80;;;12.70;1.00;;;;;;4969356;28;20216;-63
2021/06/23 01:02:27;;;;;;;38.70;23.47;;;12.70;68.00;;;;;;4969988;28;20668;-64
2021/06/23 01:04:54;;;;;;;33.23;24.77;;;12.70;8.00;;;;;;4970054;28;20217;-63
2021/06/23 01:07:22;;;;;;;30.63;25.30;;;12.70;99.90;;;;;;4969891;28;20228;-64
2021/06/23 01:09:49;;;;;;;34.63;24.70;;;12.70;99.90;;;;;;4969958;28;20208;-63
2021/06/23 01:12:22;;;;;;;35.57;25.00;;;12.80;1.00;;;;;;4969458;28;20212;-63
2021/06/23 01:14:53;;;;;;;33.87;25.07;;;12.70;1.00;;;;;;4970058;28;20217;-64
2021/06/23 01:17:21;;;;;;;32.67;25.03;;;12.70;99.90;;;;;;4969803;28;20302;-64
2021/06/23 01:19:49;;;;;;;39.90;25.43;;;12.70;99.90;;;;;;4969838;28;20265;-63
2021/06/23 01:22:18;;;;;;;34.57;26.30;;;12.70;99.90;;;;;;4969402;28;20214;-63
2021/06/23 01:24:45;;;;;;;34.83;24.87;;;12.80;99.90;;;;;;4970836;28;20312;-63
2021/06/23 01:27:12;;;;;;;33.13;24.63;;;12.80;99.90;;;;;;4972774;28;20234;-62
2021/06/23 01:29:40;;;;;;;35.87;24.70;;;12.80;99.90;;;;;;4972916;28;20212;-62
2021/06/23 01:32:09;;;;;;;33.43;23.80;;;12.80;99.90;;;;;;4973002;28;20264;-63
2021/06/23 01:34:36;;;;;;;27.73;21.97;;;12.80;94.70;;;;;;4973663;28;20692;-62
2021/06/23 01:37:03;;;;;;;34.70;23.10;;;12.80;1.00;;;;;;4973377;28;20595;-63
2021/06/23 01:39:31;;;;;;;30.00;21.67;;;12.70;99.90;;;;;;4972711;28;20236;-63
2021/06/23 01:41:58;;;;;;;29.37;21.53;;;12.70;99.90;;;;;;4972581;28;20211;-62
2021/06/23 01:44:25;;;;;;;28.00;21.13;;;12.70;99.90;;;;;;4973187;28;20220;-62
2021/06/23 01:46:51;;;;;;;33.97;21.77;;;12.60;1.00;;;;;;4973070;28;20212;-62
2021/06/23 01:49:22;;;;;;;36.13;21.73;;;12.60;1.00;;;;;;4972600;28;20232;-63
2021/06/23 01:51:49;;;;;;;21.90;16.97;;;12.60;99.90;;;;;;4972790;28;20242;-62
2021/06/23 01:54:16;;;;;;;29.43;20.13;;;12.60;99.90;;;;;;4972736;28;20217;-62
2021/06/23 01:56:44;;;;;;;26.50;20.50;;;12.60;28.60;;;;;;4973003;28;20214;-62
2021/06/23 01:59:12;;;;;;;32.40;20.03;;;12.60;99.90;;;;;;4972815;28;20228;-63
2021/06/23 02:01:50;;;;;;;29.27;19.57;;;12.60;99.90;;;;;;4972637;28;20586;-62
2021/06/23 02:04:47;;;;;;;29.97;20.13;;;12.50;99.90;;;;;;4972662;28;20216;-62
2021/06/23 02:07:28;;;;;;;26.70;19.13;;;12.50;99.90;;;;;;4972972;28;20326;-62
2021/06/23 02:10:12;;;;;;;27.40;19.67;;;12.50;1.00;;;;;;4973342;28;20701;-64
2021/06/23 02:13:17;;;;;;;26.37;20.00;;;12.50;99.90;;;;;;4972442;28;20208;-63
2021/06/23 02:15:47;;;;;;;27.17;19.43;;;12.50;99.90;;;;;;4942797;28;20208;-61
2021/06/23 02:18:14;;;;;;;27.47;20.17;;;12.50;1.00;;;;;;4972493;28;20233;-62
2021/06/23 02:20:42;;;;;;;26.90;20.17;;;12.50;1.00;;;;;;4972042;28;20686;-62
2021/06/23 02:23:11;;;;;;;33.10;21.97;;;12.50;99.90;;;;;;4972459;28;20212;-62
2021/06/23 02:25:39;;;;;;;38.33;21.43;;;12.50;99.90;;;;;;4972632;28;20215;-62
2021/06/23 02:28:07;;;;;;;33.83;20.60;;;12.50;1.00;;;;;;4971915;28;20235;-63
2021/06/23 02:30:34;;;;;;;31.03;19.93;;;12.50;1.00;;;;;;4971909;28;20208;-63
2021/06/23 02:33:02;;;;;;;29.53;21.97;;;12.50;1.00;;;;;;4972000;28;20213;-64
2021/06/23 02:35:28;;;;;;;29.80;21.13;;;12.50;1.00;;;;;;4971909;28;20212;-63
2021/06/23 02:37:58;;;;;;;31.17;21.40;;;12.50;1.00;;;;;;4970656;28;20595;-64
2021/06/23 02:40:27;;;;;;;29.93;20.90;;;12.50;99.90;;;;;;4971783;28;20245;-63
2021/06/23 02:42:54;;;;;;;34.47;20.30;;;12.50;37.40;;;;;;4971944;28;20240;-63
2021/06/23 02:45:25;;;;;;;31.87;21.60;;;12.50;1.00;;;;;;4971947;28;20213;-64
2021/06/23 02:47:52;;;;;;;29.97;21.50;;;12.50;50.20;;;;;;4971804;28;20230;-62
2021/06/23 02:50:19;;;;;;;30.33;19.00;;;12.50;1.00;;;;;;4971320;28;20676;-63
2021/06/23 02:52:46;;;;;;;24.60;19.37;;;12.50;99.90;;;;;;4972227;28;20210;-62
2021/06/23 02:55:19;;;;;;;32.50;21.57;;;12.40;99.90;;;;;;4972017;28;20215;-62
2021/06/23 02:57:47;;;;;;;34.50;19.60;;;12.40;99.90;;;;;;4971846;28;20235;-62
2021/06/23 03:00:15;;;;;;;36.70;21.77;;;12.40;1.00;;;;;;4971473;28;20208;-62
2021/06/23 03:02:43;;;;;;;30.10;19.77;;;12.40;1.00;;;;;;4971930;28;20212;-63
2021/06/23 03:05:11;;;;;;;30.00;20.00;;;12.40;1.00;;;;;;4971511;28;20214;-63
2021/06/23 03:07:38;;;;;;;29.67;20.27;;;12.40;99.90;;;;;;4971756;28;20226;-63
2021/06/23 03:10:07;;;;;;;32.13;20.87;;;12.40;1.00;;;;;;4971029;28;20686;-61
2021/06/23 03:12:35;;;;;;;31.10;20.70;;;12.40;1.00;;;;;;4971397;28;20299;-63
2021/06/23 03:15:01;;;;;;;30.23;21.03;;;12.40;1.00;;;;;;4971438;28;20243;-62
2021/06/23 03:17:28;;;;;;;28.73;20.83;;;12.40;1.00;;;;;;4971606;28;20623;-63
2021/06/23 03:19:56;;;;;;;38.27;20.50;;;12.40;99.90;;;;;;4971153;28;20221;-64
2021/06/23 03:22:23;;;;;;;29.43;20.07;;;12.40;99.90;;;;;;4971294;28;20205;-63
2021/06/23 03:24:50;;;;;;;28.97;21.13;;;12.30;99.90;;;;;;4971495;28;20578;-63
2021/06/23 03:27:17;;;;;;;35.67;19.37;;;12.40;99.90;;;;;;4970986;28;20206;-63
2021/06/23 03:29:44;;;;;;;33.23;20.37;;;12.40;1.00;;;;;;4971133;28;20236;-63
2021/06/23 03:32:12;;;;;;;30.73;19.53;;;12.40;1.00;;;;;;4970547;28;20214;-64
2021/06/23 03:34:39;;;;;;;34.67;20.23;;;12.40;1.00;;;;;;4971273;28;20205;-63
2021/06/23 03:37:08;;;;;;;33.10;21.33;;;12.30;46.00;;;;;;4971065;28;20216;-63
2021/06/23 03:39:35;;;;;;;33.90;19.87;;;12.40;99.90;;;;;;4971079;28;20209;-63
2021/06/23 03:42:02;;;;;;;26.30;19.40;;;12.40;99.90;;;;;;4970525;28;20215;-63
2021/06/23 03:44:29;;;;;;;29.83;19.07;;;12.40;1.00;;;;;;4970646;28;20206;-64
2021/06/23 03:46:56;;;;;;;29.70;19.53;;;12.40;1.00;;;;;;4971017;28;20692;-62
2021/06/23 03:49:23;;;;;;;30.57;18.43;;;12.40;93.20;;;;;;4970702;28;20860;-62
2021/06/23 03:51:49;;;;;;;32.57;21.30;;;12.40;99.90;;;;;;4970884;28;20560;-63
2021/06/23 03:54:17;;;;;;;33.17;20.80;;;12.40;99.90;;;;;;4970958;28;20610;-62
2021/06/23 03:56:44;;;;;;;29.23;19.77;;;12.40;1.00;;;;;;4971099;28;20219;-63
2021/06/23 03:59:11;;;;;;;34.53;20.07;;;12.40;99.90;;;;;;4970422;28;20760;-62
2021/06/23 04:01:37;;;;;;;38.03;20.03;;;12.40;99.90;;;;;;4970528;28;20235;-61
2021/06/23 04:04:04;;;;;;;30.93;18.60;;;12.40;99.90;;;;;;4970834;28;20225;-62
2021/06/23 04:06:32;;;;;;;34.30;21.27;;;12.40;99.90;;;;;;4968168;28;20608;-64
2021/06/23 04:08:58;;;;;;;30.13;19.90;;;12.40;99.90;;;;;;4970556;28;20230;-63
2021/06/23 04:11:26;;;;;;;23.50;17.73;;;12.40;85.20;;;;;;4969413;28;20297;-63
2021/06/23 04:13:53;;;;;;;34.80;19.87;;;12.40;99.90;;;;;;4969548;28;20220;-62
2021/06/23 04:16:20;;;;;;;29.03;19.43;;;12.30;99.90;;;;;;4970697;28;20212;-63
2021/06/23 04:18:46;;;;;;;35.80;20.10;;;12.40;1.00;;;;;;4969901;28;20228;-63
2021/06/23 04:21:13;;;;;;;29.77;20.27;;;12.40;25.60;;;;;;4967316;28;20208;-62
2021/06/23 04:23:40;;;;;;;32.33;19.73;;;12.40;15.20;;;;;;4970082;28;20208;-62
2021/06/23 04:26:06;;;;;;;35.77;19.53;;;12.50;99.90;;;;;;4969744;28;20213;-62
2021/06/23 04:28:34;;;;;;;32.50;19.67;;;12.50;1.00;;;;;;4969994;28;20236;-62
2021/06/23 04:31:01;;;;;;;28.63;19.97;;;12.50;1.00;;;;;;4969674;28;20578;-62
2021/06/23 04:33:28;;;;;;;39.37;21.37;;;12.40;1.00;;;;;;4970433;28;20212;-64
2021/06/23 04:35:55;;;;;;;27.00;19.70;;;12.40;1.00;;;;;;4970002;28;20588;-63
2021/06/23 04:38:22;;;;;;;30.60;19.40;;;12.40;99.90;;;;;;4969727;28;20229;-63
2021/06/23 04:40:49;;;;;;;30.57;18.70;;;12.50;1.00;;;;;;4969270;28;20219;-62
2021/06/23 04:43:15;;;;;;;27.63;18.00;;;12.50;1.00;;;;;;4970198;28;20582;-62
2021/06/23 04:45:43;;;;;;;29.43;18.50;;;12.50;99.90;;;;;;4970310;28;20331;-62
2021/06/23 04:48:10;;;;;;;31.27;20.47;;;12.50;99.90;;;;;;4969893;28;20323;-62
2021/06/23 04:50:37;;;;;;;30.93;20.93;;;12.50;1.00;;;;;;4969588;28;20209;-62
2021/06/23 04:53:04;;;;;;;28.90;19.33;;;12.50;99.90;;;;;;4969796;28;20208;-62
2021/06/23 04:55:31;;;;;;;28.57;19.83;;;12.50;1.00;;;;;;4969672;28;20222;-63
2021/06/23 04:57:58;;;;;;;27.93;18.37;;;12.50;1.00;;;;;;4969816;28;20242;-62
2021/06/23 05:00:24;;;;;;;30.80;19.90;;;12.50;1.00;;;;;;4971123;28;20208;-62
2021/06/23 05:02:52;;;;;;;26.33;17.50;;;12.60;1.00;;;;;;4973024;28;20666;-62
2021/06/23 05:05:19;;;;;;;33.30;20.17;;;12.60;99.90;;;;;;4973315;28;20213;-63
2021/06/23 05:07:46;;;;;;;28.13;20.50;;;12.60;99.90;;;;;;4972813;28;20252;-62
2021/06/23 05:10:13;;;;;;;34.60;18.33;;;12.60;99.90;;;;;;4973137;28;20264;-62
2021/06/23 05:12:39;;;;;;;33.43;18.30;;;12.60;1.00;;;;;;4973266;28;20231;-63
2021/06/23 05:15:07;;;;;;;28.93;18.37;;;12.70;99.90;;;;;;4973108;28;20212;-62
2021/06/23 05:17:34;;;;;;;29.33;18.03;;;12.70;99.90;;;;;;4972971;28;20245;-63
2021/06/23 05:20:05;;;;;;;25.27;17.30;;;12.70;99.90;;;;;;4972379;28;20209;-62
2021/06/23 05:22:32;;;;;;;25.07;18.10;;;12.70;1.00;;;;;;4972558;28;20223;-63
2021/06/23 05:24:59;;;;;;;29.53;17.40;;;12.70;1.00;;;;;;4972903;28;20209;-62
2021/06/23 05:27:26;;;;;;;22.63;16.97;;;12.70;1.00;;;;;;4972842;28;20235;-63
2021/06/23 05:29:52;;;;;;;23.77;17.37;;;12.70;1.00;;;;;;4972713;28;20236;-63
2021/06/23 05:32:19;;;;;;;25.13;16.20;;;12.70;99.90;;;;;;4972597;28;20231;-64
2021/06/23 05:34:46;;;;;;;26.37;16.73;;;12.80;99.90;;;;;;4972888;28;20710;-64
2021/06/23 05:37:14;;;;;;;25.57;16.33;;;12.70;99.90;;;;;;4971222;28;20213;-62
2021/06/23 05:39:40;;;;;;;27.20;16.77;;;12.80;1.00;;;;;;4972768;28;20207;-62
2021/06/23 05:42:08;;;;;;;27.40;17.40;;;12.70;1.00;;;;;;4966844;28;20227;-62
2021/06/23 05:44:34;;;;;;;23.20;16.80;;;12.80;1.00;;;;;;4972567;28;20568;-62
2021/06/23 05:47:01;;;;;;;25.53;16.23;;;12.80;1.00;;;;;;4972327;28;20211;-62
2021/06/23 05:49:28;;;;;;;25.23;16.33;;;12.80;1.00;;;;;;4971679;28;20237;-62
2021/06/23 05:51:54;;;;;;;24.10;16.43;;;12.90;1.00;;;;;;4971461;28;20210;-64
2021/06/23 05:54:22;;;;;;;29.47;18.50;;;13.00;1.00;;;;;;4972228;28;20215;-61
2021/06/23 05:56:49;;;;;;;23.23;15.53;;;13.20;1.00;;;;;;4972061;28;20220;-61
2021/06/23 05:59:16;;;;;;;25.80;15.60;;;13.20;99.90;;;;;;4972051;28;20231;-60
2021/06/23 06:01:42;;;;;;;24.77;16.90;;;13.20;99.90;;;;;;4971481;28;20221;-63
2021/06/23 06:04:09;;;;;;;27.43;17.23;;;13.30;93.30;;;;;;4971642;28;20215;-62
2021/06/23 06:06:36;;;;;;;24.43;16.50;;;13.30;1.00;;;;;;4972147;28;20209;-62
2021/06/23 06:09:03;;;;;;;23.93;16.37;;;13.40;1.00;;;;;;4971752;28;20271;-64
2021/06/23 06:11:31;;;;;;;27.93;16.57;;;13.40;1.00;;;;;;4971203;28;20212;-64
2021/06/23 06:13:57;;;;;;;23.23;16.53;;;13.40;99.90;;;;;;4972143;28;20208;-65
2021/06/23 06:16:24;;;;;;;24.87;14.97;;;13.40;99.90;;;;;;4973028;28;20223;-64
2021/06/23 06:18:50;;;;;;;23.77;16.27;;;13.40;99.90;;;;;;4972786;28;20239;-64
2021/06/23 06:21:17;;;;;;;24.33;16.60;;;13.40;99.90;;;;;;4971372;28;20216;-64
2021/06/23 06:23:44;;;;;;;25.17;17.63;;;13.50;1.00;;;;;;4972571;28;20212;-64
2021/06/23 06:26:11;;;;;;;25.00;15.87;;;13.60;99.90;;;;;;4971979;28;20208;-63
2021/06/23 06:28:39;;;;;;;22.03;14.93;;;13.50;99.90;;;;;;4971743;28;20236;-64
2021/06/23 06:31:06;;;;;;;17.70;13.83;;;13.60;99.90;;;;;;4971140;28;20638;-63
2021/06/23 06:33:33;;;;;;;21.63;14.57;;;13.60;29.10;;;;;;4971696;28;20757;-62
2021/06/23 06:35:59;;;;;;;24.33;15.27;;;13.70;99.90;;;;;;4971712;28;20211;-62
2021/06/23 06:38:26;;;;;;;25.03;13.37;;;13.70;1.00;;;;;;4971762;28;20232;-63
2021/06/23 06:40:53;;;;;;;21.83;13.73;;;13.70;99.90;;;;;;4971278;28;20209;-64
2021/06/23 06:43:21;;;;;;;26.93;15.03;;;13.70;99.90;;;;;;4971445;28;20211;-64
2021/06/23 06:45:50;;;;;;;22.53;14.43;;;13.60;99.90;;;;;;4971245;28;20703;-64
2021/06/23 06:48:17;;;;;;;26.33;14.60;;;13.70;1.00;;;;;;4971612;28;20655;-65
2021/06/23 06:50:43;;;;;;;29.73;16.80;;;13.70;1.00;;;;;;4970989;28;20599;-64
2021/06/23 06:53:10;;;;;;;22.80;14.33;;;13.90;1.00;;;;;;4971069;28;20212;-64
2021/06/23 06:55:37;;;;;;;21.27;14.03;;;14.00;99.90;;;;;;4971049;28;20261;-64
2021/06/23 06:58:04;;;;;;;21.67;13.57;;;14.00;99.90;;;;;;5019164;23;20228;-64
2021/06/23 07:00:31;;;;;;;33.07;13.50;;;14.00;99.90;;;;;;5092500;28;20205;-65
2021/06/23 07:02:59;;;;;;;23.53;14.30;;;14.10;99.90;;;;;;5092627;28;20684;-62
2021/06/23 07:05:26;;;;;;;23.23;13.77;;;14.20;99.90;;;;;;5093065;28;20205;-62
2021/06/23 07:07:53;;;;;;;27.40;13.60;;;14.40;99.90;;;;;;5099180;28;20234;-62
2021/06/23 07:10:20;;;;;;;19.50;15.07;;;14.40;99.90;;;;;;5112688;28;20231;-62
2021/06/23 07:12:47;;;;;;;23.43;13.40;;;14.50;99.90;;;;;;5112901;28;20234;-62
2021/06/23 07:15:14;;;;;;;21.03;13.03;;;14.60;96.90;;;;;;5113106;28;20300;-62
2021/06/23 07:17:41;;;;;;;22.30;13.10;;;14.60;99.90;;;;;;5112996;28;20235;-62
2021/06/23 07:20:10;;;;;;;21.80;13.40;;;14.60;99.90;;;;;;5112677;28;20203;-62
2021/06/23 07:22:37;;;;;;;21.80;13.10;;;14.60;91.10;;;;;;5112126;28;20210;-62
2021/06/23 07:25:05;;;;;;;20.57;13.23;;;14.60;43.00;;;;;;5112805;28;20203;-61
2021/06/23 07:27:32;;;;;;;18.17;12.70;;;14.70;1.00;;;;;;5112455;28;20231;-62
2021/06/23 07:29:58;;;;;;;20.57;12.70;;;14.60;6.90;;;;;;5112452;28;20327;-62
2021/06/23 07:32:26;;;;;;;23.83;13.63;;;14.60;83.50;;;;;;5112451;28;20199;-62
2021/06/23 07:37:35;;;;;;;19.20;12.23;;;14.70;99.90;;;;;;5095555;28;20223;-62
2021/06/23 07:40:01;;;;;;;18.43;12.63;;;14.90;7.40;;;;;;5112197;28;20215;-62
2021/06/23 07:42:28;;;;;;;18.47;11.33;;;14.90;34.00;;;;;;5112476;28;20204;-65
2021/06/23 07:44:58;;;;;;;16.57;11.60;;;14.80;1.00;;;;;;5112626;28;20219;-64
2021/06/23 07:47:26;;;;;;;18.63;12.00;;;14.80;1.00;;;;;;5112515;28;20238;-63
2021/06/23 07:49:53;;;;;;;17.93;11.30;;;14.80;1.00;;;;;;5112138;28;20291;-63
2021/06/23 07:52:26;;;;;;;23.20;12.90;;;14.80;1.00;;;;;;5111905;28;20214;-62
2021/06/23 07:55:11;;;;;;;20.30;12.20;;;14.90;1.00;;;;;;5112494;28;20260;-62
2021/06/23 08:08:49;;;;;;;24.40;13.83;;;14.90;1.00;;;;;;5112171;28;20219;-68
2021/06/23 08:11:19;;;;;;;17.00;12.60;;;15.00;13.00;;;;;;5111188;28;20317;-64
2021/06/23 08:13:46;;;;;;;19.80;13.03;;;15.10;1.00;;;;;;5112351;28;20260;-63
2021/06/23 08:16:13;;;;;;;17.60;13.00;;;15.10;1.00;;;;;;5111928;28;20680;-64
2021/06/23 08:18:40;;;;;;;22.07;13.70;;;15.10;1.00;;;;;;5112042;28;20227;-63
2021/06/23 08:21:07;;;;;;;26.47;14.00;;;15.00;1.00;;;;;;5111379;28;20199;-64
2021/06/23 08:23:34;;;;;;;20.57;12.40;;;15.00;1.00;;;;;;5111985;28;20215;-65
2021/06/23 08:26:01;;;;;;;20.13;12.97;;;15.10;1.00;;;;;;5112159;28;20211;-63
2021/06/23 08:28:29;;;;;;;22.43;13.33;;;15.20;1.00;;;;;;5111934;28;20269;-63
2021/06/23 08:30:56;;;;;;;20.27;13.47;;;15.20;1.00;;;;;;5111186;28;20231;-64
2021/06/23 08:33:26;;;;;;;20.47;12.07;;;15.20;1.00;;;;;;5111733;28;20207;-65
2021/06/23 08:35:53;;;;;;;21.77;13.13;;;15.40;1.00;;;;;;5114826;28;20631;-65
2021/06/23 08:40:55;;;;;;;19.30;13.00;;;15.50;1.00;;;;;;5058171;22;20273;-70
2021/06/23 08:43:22;;;;;;;21.07;14.33;;;15.50;1.00;;;;;;5116143;28;20203;-69
2021/06/23 08:45:50;;;;;;;17.50;12.00;;;15.50;1.00;;;;;;5116090;28;20199;-69
2021/06/23 08:48:18;;;;;;;23.80;12.03;;;15.70;1.00;;;;;;5107452;28;20224;-67
2021/06/23 08:50:45;;;;;;;20.27;12.00;;;15.80;1.00;;;;;;5094636;28;20219;-68
2021/06/23 08:53:12;;;;;;;20.57;11.60;;;15.90;1.00;;;;;;5095766;28;20200;-68
2021/06/23 08:55:39;;;;;;;18.07;11.20;;;15.90;1.00;;;;;;5115875;28;20231;-70
2021/06/23 08:58:07;;;;;;;17.23;11.60;;;15.60;1.00;;;;;;5115894;28;20231;-69
2021/06/23 09:00:34;;;;;;;15.40;11.33;;;15.70;1.00;;;;;;5115253;28;20200;-69
2021/06/23 09:03:05;;;;;;;18.80;11.93;;;15.80;1.00;;;;;;5104108;28;20208;-68
2021/06/23 09:05:53;;;;;;;19.87;11.50;;;16.00;1.00;;;;;;5094962;28;20212;-69
2021/06/23 09:08:32;;;;;;;17.23;11.80;;;16.10;1.00;;;;;;5095227;28;20232;-68
2021/06/23 09:11:00;;;;;;;17.43;11.43;;;16.10;1.00;;;;;;5094676;28;20238;-69
2021/06/23 09:13:28;;;;;;;19.27;11.13;;;16.20;1.00;;;;;;5094921;28;20577;-67
2021/06/23 09:15:57;;;;;;;19.27;11.63;;;16.50;1.00;;;;;;5094862;28;20200;-68
2021/06/23 09:18:28;;;;;;;21.93;12.70;;;16.90;1.00;;;;;;5095106;28;20232;-68
2021/06/23 09:20:58;;;;;;;24.57;12.70;;;16.80;99.90;;;;;;5094697;28;20205;-67
2021/06/23 09:23:39;;;;;;;16.13;11.40;;;16.80;1.00;;;;;;5095072;28;20215;-68
2021/06/23 09:26:14;;;;;;;20.37;11.87;;;16.80;99.90;;;;;;5113678;28;20219;-67
2021/06/23 09:28:41;;;;;;;20.47;11.57;;;16.60;99.90;;;;;;5102703;28;20216;-69
2021/06/23 09:31:09;;;;;;;21.17;12.37;;;16.70;99.90;;;;;;5094241;28;20231;-68
2021/06/23 09:33:38;;;;;;;17.57;12.47;;;16.60;99.90;;;;;;5094461;28;20730;-67
2021/06/23 09:36:07;;;;;;;21.50;12.10;;;16.50;99.90;;;;;;5094669;28;20262;-68
2021/06/23 09:38:37;;;;;;;16.90;10.00;;;16.60;99.90;;;;;;5094292;28;20228;-66
2021/06/23 09:41:06;;;;;;;15.17;10.50;;;16.80;99.90;;;;;;5093859;28;20189;-67
2021/06/23 09:43:41;;;;;;;21.73;11.73;;;16.80;99.90;;;;;;5094526;28;20208;-67
2021/06/23 09:46:22;;;;;;;18.27;11.53;;;16.90;1.00;;;;;;5094018;28;20211;-67
2021/06/23 09:48:52;;;;;;;18.10;12.30;;;17.20;99.90;;;;;;5094250;28;20228;-67
2021/06/23 09:51:21;;;;;;;18.40;12.00;;;17.30;99.90;;;;;;5093240;28;20233;-66
2021/06/23 09:53:49;;;;;;;13.53;11.37;;;17.30;99.90;;;;;;5094298;28;20664;-66
2021/06/23 09:56:28;;;;;;;20.83;11.00;;;17.40;99.90;;;;;;5094205;28;20686;-67
2021/06/23 09:58:57;;;;;;;17.03;12.33;;;17.30;99.90;;;;;;5094106;28;20715;-72
2021/06/23 10:04:42;;;;;;;19.10;11.50;;;17.40;99.90;;;;;;5092263;28;20287;-71
2021/06/23 10:07:09;;;;;;;20.57;12.60;;;17.30;99.90;;;;;;5092791;28;20210;-69
2021/06/23 10:09:36;;;;;;;24.50;13.20;;;17.50;99.90;;;;;;5094012;28;20196;-70
2021/06/23 10:12:06;;;;;;;18.10;11.80;;;17.70;99.90;;;;;;5093308;28;20208;-70
2021/06/23 10:14:34;;;;;;;18.80;12.93;;;17.70;99.90;;;;;;5094069;28;20239;-72
2021/06/23 10:17:05;;;;;;;20.13;12.53;;;17.60;99.90;;;;;;5093991;28;20205;-72
2021/06/23 10:20:01;;;;;;;20.93;13.27;;;17.50;99.90;;;;;;5093801;28;20312;-70
2021/06/23 10:22:30;;;;;;;21.83;13.63;;;17.50;99.90;;;;;;5104214;28;20620;-71
2021/06/23 10:24:57;;;;;;;20.00;13.00;;;17.60;99.90;;;;;;5099710;28;20588;-66
2021/06/23 10:27:32;;;;;;;18.17;12.03;;;17.80;99.90;;;;;;5094734;28;20579;-71
2021/06/23 10:30:02;;;;;;;18.00;13.03;;;17.90;99.90;;;;;;5110570;28;20253;-67
2021/06/23 10:32:29;;;;;;;22.43;11.93;;;17.90;99.90;;;;;;5103340;28;20212;-71
2021/06/23 10:34:55;;;;;;;16.30;11.50;;;18.20;99.90;;;;;;5097579;28;20212;-70
2021/06/23 10:37:23;;;;;;;20.60;12.97;;;18.30;99.90;;;;;;5093563;28;20207;-71
2021/06/23 10:39:52;;;;;;;16.23;13.47;;;18.00;99.90;;;;;;5093390;28;20218;-68
2021/06/23 10:42:22;;;;;;;23.80;13.37;;;18.00;99.90;;;;;;5092823;28;20208;-66
2021/06/23 10:44:54;;;;;;;16.20;12.40;;;18.30;99.90;;;;;;5093413;28;20215;-66
2021/06/23 10:47:30;;;;;;;18.03;10.50;;;18.60;99.90;;;;;;5093225;28;20636;-67
2021/06/23 10:49:57;;;;;;;24.63;13.60;;;18.20;99.90;;;;;;5093118;28;20204;-67
2021/06/23 10:52:38;;;;;;;21.27;12.63;;;18.10;99.90;;;;;;5092570;28;20707;-66
2021/06/23 10:55:22;;;;;;;18.07;13.13;;;17.90;99.90;;;;;;5093344;28;20212;-67
2021/06/23 10:57:50;;;;;;;18.53;12.67;;;17.80;99.90;;;;;;5078785;28;20220;-66
2021/06/23 11:00:31;;;;;;;19.57;12.97;;;18.00;99.90;;;;;;5093114;28;20208;-66
2021/06/23 11:03:09;;;;;;;19.67;12.37;;;18.30;99.90;;;;;;5093121;28;20628;-68
2021/06/23 11:05:40;;;;;;;17.20;12.63;;;18.60;99.90;;;;;;5093121;28;20212;-67
2021/06/23 11:08:35;;;;;;;19.00;12.83;;;18.80;99.90;;;;;;5092671;28;20251;-68
2021/06/23 11:11:05;;;;;;;18.03;13.20;;;18.70;99.90;;;;;;5068378;28;20236;-69
2021/06/23 11:13:34;;;;;;;17.90;12.70;;;18.70;99.90;;;;;;5093222;28;20216;-67
2021/06/23 11:16:01;;;;;;;22.10;15.37;;;18.80;99.90;;;;;;5092485;28;20688;-69
2021/06/23 11:18:32;;;;;;;18.97;14.00;;;18.90;99.90;;;;;;5092601;28;20228;-69
2021/06/23 11:21:01;;;;;;;19.07;13.47;;;18.90;99.90;;;;;;5091804;28;20208;-67
2021/06/23 11:23:45;;;;;;;17.97;13.20;;;18.90;99.90;;;;;;5093088;28;20639;-68
2021/06/23 11:26:47;;;;;;;21.63;14.80;;;18.50;99.90;;;;;;5092815;28;20227;-68
2021/06/23 11:29:46;;;;;;;23.13;14.50;;;18.70;99.90;;;;;;5092550;28;20227;-68
2021/06/23 11:32:24;;;;;;;19.60;14.87;;;19.00;99.90;;;;;;5091598;28;20224;-66
2021/06/23 11:34:58;;;;;;;20.07;14.10;;;19.00;99.90;;;;;;5092372;28;20696;-66
2021/06/23 11:37:31;;;;;;;19.00;14.13;;;19.00;99.90;;;;;;5091961;28;20208;-65
2021/06/23 11:40:23;;;;;;;24.80;18.13;;;19.10;99.90;;;;;;5082646;28;20216;-67
2021/06/23 11:42:52;;;;;;;22.23;14.43;;;19.20;99.90;;;;;;5092377;28;20544;-67
2021/06/23 11:45:20;;;;;;;17.80;13.33;;;19.20;99.90;;;;;;5092169;28;20215;-66
2021/06/23 11:47:48;;;;;;;19.33;13.87;;;19.20;99.90;;;;;;5091773;28;20708;-68
2021/06/23 11:50:15;;;;;;;20.83;14.07;;;19.00;99.90;;;;;;5092167;28;20241;-68
2021/06/23 11:52:42;;;;;;;23.07;14.97;;;18.80;99.90;;;;;;5091874;28;20571;-69
2021/06/23 11:55:11;;;;;;;17.97;13.67;;;18.80;99.90;;;;;;5092250;28;20207;-65
2021/06/23 11:57:38;;;;;;;22.00;14.73;;;19.00;99.90;;;;;;5092023;28;20278;-66
2021/06/23 12:00:08;;;;;;;23.00;14.80;;;19.10;99.90;;;;;;5091405;28;20216;-66
2021/06/23 12:02:35;;;;;;;23.70;14.57;;;19.30;99.90;;;;;;5091510;28;20219;-67
2021/06/23 12:05:02;;;;;;;20.53;14.70;;;19.50;99.90;;;;;;5092091;28;20254;-68
2021/06/23 12:07:28;;;;;;;18.53;14.77;;;19.40;99.90;;;;;;5091996;28;20204;-69
2021/06/23 12:09:55;;;;;;;17.70;14.87;;;19.30;99.90;;;;;;5091218;28;20211;-67
2021/06/23 12:12:22;;;;;;;21.80;15.03;;;19.30;99.90;;;;;;5091497;28;20228;-69
2021/06/23 12:14:48;;;;;;;22.03;13.90;;;19.50;99.90;;;;;;5091740;28;20200;-68
2021/06/23 12:17:17;;;;;;;22.03;14.20;;;19.40;99.90;;;;;;5091048;28;20219;-65
2021/06/23 12:19:45;;;;;;;19.43;14.77;;;19.20;99.90;;;;;;5091172;28;20208;-66
2021/06/23 12:22:12;;;;;;;19.27;14.40;;;19.40;99.90;;;;;;5091111;28;20207;-68
2021/06/23 12:24:39;;;;;;;16.73;14.40;;;19.50;99.90;;;;;;5091720;28;20215;-66
2021/06/23 12:27:06;;;;;;;22.13;14.27;;;19.60;99.90;;;;;;5091560;28;20204;-65
2021/06/23 12:29:35;;;;;;;18.87;13.73;;;19.70;99.90;;;;;;5091142;28;20231;-67
2021/06/23 12:32:02;;;;;;;20.17;14.70;;;19.90;99.90;;;;;;5090829;28;20228;-66
2021/06/23 12:34:30;;;;;;;20.73;15.33;;;20.00;99.90;;;;;;5091883;28;20211;-67
2021/06/23 12:36:57;;;;;;;21.93;15.13;;;19.60;99.90;;;;;;5091243;28;20661;-66
2021/06/23 12:39:24;;;;;;;20.27;14.37;;;19.30;99.90;;;;;;5091230;28;20240;-66
2021/06/23 12:41:51;;;;;;;19.00;15.03;;;19.10;99.90;;;;;;5090978;28;20676;-66
2021/06/23 12:44:18;;;;;;;23.87;17.50;;;19.00;99.90;;;;;;5079433;28;20208;-67
2021/06/23 12:46:44;;;;;;;20.40;15.67;;;19.10;99.90;;;;;;5071502;28;20216;-67
2021/06/23 12:49:11;;;;;;;19.10;15.57;;;19.20;99.90;;;;;;5071320;28;20229;-67
2021/06/23 12:51:39;;;;;;;19.57;15.27;;;19.50;99.90;;;;;;5070699;28;20221;-67
2021/06/23 12:54:06;;;;;;;15.37;12.83;;;19.70;99.90;;;;;;5071147;28;20209;-68
2021/06/23 12:56:33;;;;;;;19.70;16.03;;;19.60;99.90;;;;;;5071086;28;20222;-66
2021/06/23 12:59:00;;;;;;;19.20;15.90;;;19.70;99.90;;;;;;5070996;28;20236;-66